地図

経路データ

SID SEASON NUMBER BASIN SUBBASIN NAME ISO_TIME NATURE LAT LON WMO_WIND WMO_PRES WMO_AGENCY TRACK_TYPE DIST2LAND LANDFALL IFLAG USA_AGENCY USA_ATCF_ID USA_LAT USA_LON USA_RECORD USA_STATUS USA_WIND USA_PRES USA_SSHS USA_R34_NE USA_R34_SE USA_R34_SW USA_R34_NW USA_R50_NE USA_R50_SE USA_R50_SW USA_R50_NW USA_R64_NE USA_R64_SE USA_R64_SW USA_R64_NW USA_POCI USA_ROCI USA_RMW USA_EYE TOKYO_LAT TOKYO_LON TOKYO_GRADE TOKYO_WIND TOKYO_PRES TOKYO_R50_DIR TOKYO_R50_LONG TOKYO_R50_SHORT TOKYO_R30_DIR TOKYO_R30_LONG TOKYO_R30_SHORT TOKYO_LAND CMA_LAT CMA_LON CMA_CAT CMA_WIND CMA_PRES HKO_LAT HKO_LON HKO_CAT HKO_WIND HKO_PRES NEWDELHI_LAT NEWDELHI_LON NEWDELHI_GRADE NEWDELHI_WIND NEWDELHI_PRES NEWDELHI_CI NEWDELHI_DP NEWDELHI_POCI REUNION_LAT REUNION_LON REUNION_TYPE REUNION_WIND REUNION_PRES REUNION_TNUM REUNION_CI REUNION_RMW REUNION_R34_NE REUNION_R34_SE REUNION_R34_SW REUNION_R34_NW REUNION_R50_NE REUNION_R50_SE REUNION_R50_SW REUNION_R50_NW REUNION_R64_NE REUNION_R64_SE REUNION_R64_SW REUNION_R64_NW BOM_LAT BOM_LON BOM_TYPE BOM_WIND BOM_PRES BOM_TNUM BOM_CI BOM_RMW BOM_R34_NE BOM_R34_SE BOM_R34_SW BOM_R34_NW BOM_R50_NE BOM_R50_SE BOM_R50_SW BOM_R50_NW BOM_R64_NE BOM_R64_SE BOM_R64_SW BOM_R64_NW BOM_ROCI BOM_POCI BOM_EYE BOM_POS_METHOD BOM_PRES_METHOD NADI_LAT NADI_LON NADI_CAT NADI_WIND NADI_PRES WELLINGTON_LAT WELLINGTON_LON WELLINGTON_WIND WELLINGTON_PRES DS824_LAT DS824_LON DS824_STAGE DS824_WIND DS824_PRES TD9636_LAT TD9636_LON TD9636_STAGE TD9636_WIND TD9636_PRES TD9635_LAT TD9635_LON TD9635_WIND TD9635_PRES TD9635_ROCI NEUMANN_LAT NEUMANN_LON NEUMANN_CLASS NEUMANN_WIND NEUMANN_PRES MLC_LAT MLC_LON MLC_CLASS MLC_WIND MLC_PRES USA_GUST BOM_GUST BOM_GUST_PER REUNION_GUST REUNION_GUST_PER USA_SEAHGT USA_SEARAD_NE USA_SEARAD_SE USA_SEARAD_SW USA_SEARAD_NW STORM_SPEED STORM_DIR
1961247N13283 1961 84 NA CS CARLA 1961-09-03 12:00:00 TS 12.5000 -77.0000 25 hurdat_atl main 265 265 O_____________ hurdat_atl AL031961 12.5000 -77.0000 TD 25 -1 11 292
1961247N13283 1961 84 NA CS CARLA 1961-09-03 15:00:00 TS 12.7002 -77.5173 main 320 320 P_____________ AL031961 12.7002 -77.5173 TD 27 -1 11 292
1961247N13283 1961 84 NA CS CARLA 1961-09-03 18:00:00 TS 12.9000 -78.0000 30 hurdat_atl main 374 374 O_____________ hurdat_atl AL031961 12.9000 -78.0000 TD 30 -1 10 294
1961247N13283 1961 84 NA CS CARLA 1961-09-03 21:00:00 TS 13.0999 -78.4226 main 410 408 P_____________ AL031961 13.0999 -78.4226 TD 30 -1 9 297
1961247N13283 1961 84 NA CS CARLA 1961-09-04 00:00:00 TS 13.3000 -78.8000 30 hurdat_atl main 426 426 O_____________ hurdat_atl AL031961 13.3000 -78.8000 TD 30 -1 8 298
1961247N13283 1961 84 NA CS CARLA 1961-09-04 03:00:00 TS 13.4925 -79.1726 main 441 405 P_____________ AL031961 13.4925 -79.1726 TD 30 -1 8 300
1961247N13283 1961 84 NA CS CARLA 1961-09-04 06:00:00 TS 13.7000 -79.5000 30 1007 hurdat_atl main 405 369 O_____________ hurdat_atl AL031961 13.7000 -79.5000 TD 30 1007 -1 7 307
1961247N13283 1961 84 NA CS CARLA 1961-09-04 09:00:00 TS 13.9274 -79.7651 main 369 345 P_____________ AL031961 13.9274 -79.7651 TD 30 1006 -1 7 316
1961247N13283 1961 84 NA CS CARLA 1961-09-04 12:00:00 TS 14.2000 -80.0000 30 1006 hurdat_atl main 345 316 O_____________ hurdat_atl AL031961 14.2000 -80.0000 TD 30 1006 -1 8 323
1961247N13283 1961 84 NA CS CARLA 1961-09-04 15:00:00 TS 14.5424 -80.2351 main 316 279 P_____________ AL031961 14.5424 -80.2351 TD 32 1005 -1 9 325
1961247N13283 1961 84 NA CS CARLA 1961-09-04 18:00:00 TS 14.9000 -80.5000 35 1004 hurdat_atl main 279 248 O_____________ hurdat_atl AL031961 14.9000 -80.5000 TS 35 1004 0 9 320
1961247N13283 1961 84 NA CS CARLA 1961-09-04 21:00:00 TS 15.2224 -80.8200 main 248 211 P_____________ AL031961 15.2224 -80.8200 TS 37 1003 0 9 312
1961247N13283 1961 84 NA CS CARLA 1961-09-05 00:00:00 TS 15.5000 -81.2000 40 1002 hurdat_atl main 211 178 O_____________ hurdat_atl AL031961 15.5000 -81.2000 TS 40 1002 0 9 301
1961247N13283 1961 84 NA CS CARLA 1961-09-05 03:00:00 TS 15.7151 -81.6576 main 169 147 P_____________ AL031961 15.7151 -81.6576 TS 40 1000 0 10 295
1961247N13283 1961 84 NA CS CARLA 1961-09-05 06:00:00 TS 15.9000 -82.1000 40 999 hurdat_atl main 147 132 O_____________ hurdat_atl AL031961 15.9000 -82.1000 TS 40 999 0 8 296
1961247N13283 1961 84 NA CS CARLA 1961-09-05 09:00:00 TS 16.0849 -82.4376 main 139 131 P_____________ AL031961 16.0849 -82.4376 TS 42 998 0 7 305
1961247N13283 1961 84 NA CS CARLA 1961-09-05 12:00:00 TS 16.3000 -82.7000 45 998 hurdat_atl main 134 134 O_____________ hurdat_atl AL031961 16.3000 -82.7000 TS 45 998 0 7 318
1961247N13283 1961 84 NA CS CARLA 1961-09-05 15:00:00 TS 16.5924 -82.9076 main 155 155 P_____________ AL031961 16.5924 -82.9076 TS 47 995 0 7 327
1961247N13283 1961 84 NA CS CARLA 1961-09-05 18:00:00 TS 16.9000 -83.1000 50 993 hurdat_atl main 174 174 O_____________ hurdat_atl AL031961 16.9000 -83.1000 TS 50 993 0 7 324
1961247N13283 1961 84 NA CS CARLA 1961-09-05 21:00:00 TS 17.1424 -83.3277 main 180 180 P_____________ AL031961 17.1424 -83.3277 TS 52 991 0 7 316
1961247N13283 1961 84 NA CS CARLA 1961-09-06 00:00:00 TS 17.4000 -83.6000 55 990 hurdat_atl main 193 193 O_____________ hurdat_atl AL031961 17.4000 -83.6000 TS 55 990 0 8 316
1961247N13283 1961 84 NA CS CARLA 1961-09-06 03:00:00 TS 17.7425 -83.9275 main 216 216 P_____________ AL031961 17.7425 -83.9275 TS 60 988 0 10 316
1961247N13283 1961 84 NA CS CARLA 1961-09-06 06:00:00 TS 18.1000 -84.3000 65 987 hurdat_atl main 249 249 O_____________ hurdat_atl AL031961 18.1000 -84.3000 HU 65 987 1 10 312
1961247N13283 1961 84 NA CS CARLA 1961-09-06 09:00:00 TS 18.4226 -84.7149 main 279 257 P_____________ AL031961 18.4226 -84.7149 HU 70 984 1 10 308
1961247N13283 1961 84 NA CS CARLA 1961-09-06 12:00:00 TS 18.7000 -85.1000 75 982 hurdat_atl main 257 220 O_____________ hurdat_atl AL031961 18.7000 -85.1000 HU 75 982 1 8 307
1961247N13283 1961 84 NA CS CARLA 1961-09-06 15:00:00 TS 18.9149 -85.3951 main 220 194 P_____________ AL031961 18.9149 -85.3951 HU 75 981 1 6 310
1961247N13283 1961 84 NA CS CARLA 1961-09-06 18:00:00 TS 19.1000 -85.6000 75 981 hurdat_atl main 194 179 O_____________ hurdat_atl AL031961 19.1000 -85.6000 HU 75 981 1 5 319
1961247N13283 1961 84 NA CS CARLA 1961-09-06 21:00:00 TS 19.2774 -85.7301 main 179 167 P_____________ AL031961 19.2774 -85.7301 HU 75 979 1 4 335
1961247N13283 1961 84 NA CS CARLA 1961-09-07 00:00:00 TS 19.5000 -85.8000 75 978 hurdat_atl main 167 152 O_____________ hurdat_atl AL031961 19.5000 -85.8000 HU 75 978 1 6 347
1961247N13283 1961 84 NA CS CARLA 1961-09-07 03:00:00 TS 19.8200 -85.8650 main 152 123 P_____________ AL031961 19.8200 -85.8650 HU 75 980 1 7 352
1961247N13283 1961 84 NA CS CARLA 1961-09-07 06:00:00 TS 20.2000 -85.9000 75 982 hurdat_atl main 123 100 O_____________ hurdat_atl AL031961 20.2000 -85.9000 HU 75 982 1 8 358
1961247N13283 1961 84 NA CS CARLA 1961-09-07 09:00:00 TS 20.6000 -85.8778 main 100 83 P_____________ AL031961 20.6000 -85.8778 HU 77 980 1 8 1
1961247N13283 1961 84 NA CS CARLA 1961-09-07 12:00:00 TS 21.0000 -85.9000 80 hurdat_atl main 83 73 I_____________ hurdat_atl AL031961 21.0000 -85.9000 HU 80 978 1 8 349
1961247N13283 1961 84 NA CS CARLA 1961-09-07 15:00:00 TS 21.3724 -86.0400 main 79 66 P_____________ AL031961 21.3724 -86.0400 HU 82 976 1 8 332
1961247N13283 1961 84 NA CS CARLA 1961-09-07 18:00:00 TS 21.7000 -86.3000 85 975 hurdat_atl main 68 54 O_____________ hurdat_atl AL031961 21.7000 -86.3000 HU 85 975 2 8 315
1961247N13283 1961 84 NA GM CARLA 1961-09-07 21:00:00 TS 21.9576 -86.6776 main 63 59 P_____________ AL031961 21.9576 -86.6776 HU 87 973 2 9 304
1961247N13283 1961 84 NA GM CARLA 1961-09-08 00:00:00 TS 22.2000 -87.1000 90 972 hurdat_atl main 78 78 O_____________ hurdat_atl AL031961 22.2000 -87.1000 HU 90 972 2 9 307
1961247N13283 1961 84 NA GM CARLA 1961-09-08 03:00:00 TS 22.5074 -87.4650 main 113 113 P_____________ AL031961 22.5074 -87.4650 HU 92 969 2 9 313
1961247N13283 1961 84 NA GM CARLA 1961-09-08 06:00:00 TS 22.8000 -87.8000 95 966 hurdat_atl main 145 145 O_____________ hurdat_atl AL031961 22.8000 -87.8000 HU 95 966 2 8 311
1961247N13283 1961 84 NA GM CARLA 1961-09-08 09:00:00 TS 23.0299 -88.1076 main 167 167 P_____________ AL031961 23.0299 -88.1076 HU 97 963 3 7 306
1961247N13283 1961 84 NA GM CARLA 1961-09-08 12:00:00 TS 23.2000 -88.4000 100 961 hurdat_atl main 190 190 O_____________ hurdat_atl AL031961 23.2000 -88.4000 HU 100 961 3 6 297
1961247N13283 1961 84 NA GM CARLA 1961-09-08 15:00:00 TS 23.3074 -88.6927 main 201 201 P_____________ AL031961 23.3074 -88.6927 HU 100 961 3 6 290
1961247N13283 1961 84 NA GM CARLA 1961-09-08 18:00:00 TS 23.4000 -89.0000 100 961 hurdat_atl main 216 216 O_____________ hurdat_atl AL031961 23.4000 -89.0000 HU 100 961 3 6 291
1961247N13283 1961 84 NA GM CARLA 1961-09-08 21:00:00 TS 23.5350 -89.3500 main 238 238 P_____________ AL031961 23.5350 -89.3500 HU 102 957 3 7 295
1961247N13283 1961 84 NA GM CARLA 1961-09-09 00:00:00 TS 23.7000 -89.7000 105 954 hurdat_atl main 270 270 O_____________ hurdat_atl AL031961 23.7000 -89.7000 HU 105 954 3 7 300
1961247N13283 1961 84 NA GM CARLA 1961-09-09 03:00:00 TS 23.8849 -90.0076 main 299 299 P_____________ AL031961 23.8849 -90.0076 HU 105 954 3 7 306
1961247N13283 1961 84 NA GM CARLA 1961-09-09 06:00:00 TS 24.1000 -90.3000 105 955 hurdat_atl main 326 326 O_____________ hurdat_atl AL031961 24.1000 -90.3000 HU 105 955 3 7 311
1961247N13283 1961 84 NA GM CARLA 1961-09-09 09:00:00 TS 24.3423 -90.5852 main 353 353 P_____________ AL031961 24.3423 -90.5852 HU 105 954 3 7 312
1961247N13283 1961 84 NA GM CARLA 1961-09-09 12:00:00 TS 24.6000 -90.9000 105 954 hurdat_atl main 393 393 O_____________ hurdat_atl AL031961 24.6000 -90.9000 HU 105 954 3 8 309
1961247N13283 1961 84 NA GM CARLA 1961-09-09 15:00:00 TS 24.8575 -91.2850 main 436 436 P_____________ AL031961 24.8575 -91.2850 HU 107 950 3 9 305
1961247N13283 1961 84 NA GM CARLA 1961-09-09 18:00:00 TS 25.1000 -91.7000 110 947 hurdat_atl main 453 438 O_____________ hurdat_atl AL031961 25.1000 -91.7000 HU 110 947 3 9 301
1961247N13283 1961 84 NA GM CARLA 1961-09-09 21:00:00 TS 25.2999 -92.1077 main 440 428 P_____________ AL031961 25.2999 -92.1077 HU 112 942 3 8 299
1961247N13283 1961 84 NA GM CARLA 1961-09-10 00:00:00 TS 25.5000 -92.5000 115 938 hurdat_atl main 431 413 O_____________ hurdat_atl AL031961 25.5000 -92.5000 HU 115 938 4 8 304
1961247N13283 1961 84 NA GM CARLA 1961-09-10 03:00:00 TS 25.7649 -92.8649 main 417 388 P_____________ AL031961 25.7649 -92.8649 HU 115 936 4 8 308
1961247N13283 1961 84 NA GM CARLA 1961-09-10 06:00:00 TS 26.0000 -93.2000 115 934 hurdat_atl main 388 359 O_____________ hurdat_atl AL031961 26.0000 -93.2000 HU 115 934 4 7 301
1961247N13283 1961 84 NA GM CARLA 1961-09-10 09:00:00 TS 26.1149 -93.5078 main 359 329 P_____________ AL031961 26.1149 -93.5078 HU 117 938 4 6 290
1961247N13283 1961 84 NA GM CARLA 1961-09-10 12:00:00 TS 26.2000 -93.8000 120 942 hurdat_atl main 329 301 O_____________ hurdat_atl AL031961 26.2000 -93.8000 HU 120 942 4 6 293
1961247N13283 1961 84 NA GM CARLA 1961-09-10 15:00:00 TS 26.3349 -94.1001 main 301 274 P_____________ AL031961 26.3349 -94.1001 HU 120 939 4 6 299
1961247N13283 1961 84 NA GM CARLA 1961-09-10 18:00:00 TS 26.5000 -94.4000 120 937 hurdat_atl main 274 247 O_____________ hurdat_atl AL031961 26.5000 -94.4000 HU 120 937 4 6 305
1961247N13283 1961 84 NA GM CARLA 1961-09-10 21:00:00 TS 26.6999 -94.6925 main 247 213 P_____________ AL031961 26.6999 -94.6925 HU 120 936 4 7 307
1961247N13283 1961 84 NA GM CARLA 1961-09-11 00:00:00 TS 26.9000 -95.0000 120 936 hurdat_atl main 213 184 O_____________ hurdat_atl AL031961 26.9000 -95.0000 HU 120 936 4 7 300
1961247N13283 1961 84 NA GM CARLA 1961-09-11 03:00:00 TS 27.0501 -95.3726 main 174 150 P_____________ AL031961 27.0501 -95.3726 HU 122 931 4 7 296
1961247N13283 1961 84 NA GM CARLA 1961-09-11 06:00:00 TS 27.2000 -95.7000 125 927 hurdat_atl main 150 121 O_____________ hurdat_atl AL031961 27.2000 -95.7000 HU 125 927 4 6 307
1961247N13283 1961 84 NA GM CARLA 1961-09-11 09:00:00 TS 27.3848 -95.8802 main 121 97 P_____________ AL031961 27.3848 -95.8802 HU 125 928 4 5 326
1961247N13283 1961 84 NA GM CARLA 1961-09-11 12:00:00 TS 27.6000 -96.0000 125 hurdat_atl main 97 73 I_____________ hurdat_atl AL031961 27.6000 -96.0000 HU 125 929 4 5 332
1961247N13283 1961 84 NA GM CARLA 1961-09-11 15:00:00 TS 27.8319 -96.1501 main 69 34 P_____________ AL031961 27.8319 -96.1501 HU 125 930 4 6 332
1961247N13283 1961 84 NA GM CARLA 1961-09-11 18:00:00 TS 28.1000 -96.3000 125 931 hurdat_atl main 34 11 O_____________ hurdat_atl AL031961 28.1000 -96.3000 HU 125 931 4 6 335
1961247N13283 1961 84 NA GM CARLA 1961-09-11 20:00:00 TS 28.3000 -96.4000 125 931 hurdat_atl main 11 0 O_____________ hurdat_atl AL031961 28.3000 -96.4000 L HU 125 931 4 7 334
1961247N13283 1961 84 NA GM CARLA 1961-09-11 21:00:00 TS 28.3964 -96.4641 main 0 0 P_____________ AL031961 28.3964 -96.4641 HU 118 933 4 7 327
1961247N13283 1961 84 NA NA CARLA 1961-09-12 00:00:00 TS 28.7000 -96.7000 100 940 hurdat_atl main 0 0 O_____________ hurdat_atl AL031961 28.7000 -96.7000 HU 100 940 3 8 327
1961247N13283 1961 84 NA NA CARLA 1961-09-12 03:00:00 TS 29.0676 -96.9526 main 0 0 P_____________ AL031961 29.0676 -96.9526 HU 85 947 2 9 331
1961247N13283 1961 84 NA NA CARLA 1961-09-12 06:00:00 TS 29.5000 -97.2000 70 955 hurdat_atl main 0 0 O_____________ hurdat_atl AL031961 29.5000 -97.2000 HU 70 955 1 10 335
1961247N13283 1961 84 NA NA CARLA 1961-09-12 09:00:00 TS 29.9700 -97.4373 main 0 0 P_____________ AL031961 29.9700 -97.4373 HU 60 964 0 11 341
1961247N13283 1961 84 NA NA CARLA 1961-09-12 12:00:00 TS 30.5000 -97.6000 50 974 hurdat_atl main 0 0 O_____________ hurdat_atl AL031961 30.5000 -97.6000 TS 50 974 0 11 351
1961247N13283 1961 84 NA NA CARLA 1961-09-12 15:00:00 TS 31.0849 -97.6452 main 0 0 P_____________ AL031961 31.0849 -97.6452 TS 45 975 0 12 1
1961247N13283 1961 84 NA NA CARLA 1961-09-12 18:00:00 TS 31.7000 -97.6000 40 977 hurdat_atl main 0 0 O_____________ hurdat_atl AL031961 31.7000 -97.6000 TS 40 977 0 12 5
1961247N13283 1961 84 NA NA CARLA 1961-09-12 21:00:00 TS 32.2850 -97.5298 main 0 0 P_____________ AL031961 32.2850 -97.5298 TS 37 978 0 12 8
1961247N13283 1961 84 NA NA CARLA 1961-09-13 00:00:00 TS 32.9000 -97.4000 35 980 hurdat_atl main 0 0 O_____________ hurdat_atl AL031961 32.9000 -97.4000 TS 35 980 0 13 8
1961247N13283 1961 84 NA NA CARLA 1961-09-13 03:00:00 TS 33.5990 -97.3105 main 0 0 P_____________ AL031961 33.5990 -97.3105 TS 35 982 0 14 13
1961247N13283 1961 84 NA NA CARLA 1961-09-13 06:00:00 TS 34.3000 -97.0000 35 985 hurdat_atl main 0 0 O_____________ hurdat_atl AL031961 34.3000 -97.0000 TS 35 985 0 16 33
1961247N13283 1961 84 NA NA CARLA 1961-09-13 09:00:00 TS 34.9307 -96.2559 main 0 0 P_____________ AL031961 34.9307 -96.2559 TS 35 986 0 18 49
1961247N13283 1961 84 NA NA CARLA 1961-09-13 12:00:00 ET 35.5000 -95.3000 35 988 hurdat_atl main 0 0 O_____________ hurdat_atl AL031961 35.5000 -95.3000 EX 35 988 -4 18 54
1961247N13283 1961 84 NA NA CARLA 1961-09-13 15:00:00 ET 35.9746 -94.4922 main 0 0 P_____________ AL031961 35.9746 -94.4922 EX 35 989 -4 18 56
1961247N13283 1961 84 NA NA CARLA 1961-09-13 18:00:00 ET 36.5000 -93.5000 35 991 hurdat_atl main 0 0 O_____________ hurdat_atl AL031961 36.5000 -93.5000 EX 35 991 -4 22 61
1961247N13283 1961 84 NA NA CARLA 1961-09-13 21:00:00 ET 37.0166 -92.1407 main 0 0 P_____________ AL031961 37.0166 -92.1407 EX 32 991 -4 28 58
1961247N13283 1961 84 NA NA CARLA 1961-09-14 00:00:00 ET 38.0000 -90.5000 30 992 hurdat_atl main 0 0 O_____________ hurdat_atl AL031961 38.0000 -90.5000 EX 30 992 -4 40 44
1961247N13283 1961 84 NA NA CARLA 1961-09-14 03:00:00 ET 39.8938 -88.6206 main 0 0 P_____________ AL031961 39.8938 -88.6206 EX 30 992 -4 51 36
1961247N13283 1961 84 NA NA CARLA 1961-09-14 06:00:00 ET 42.1000 -86.6000 30 993 hurdat_atl main 0 0 O_____________ hurdat_atl AL031961 42.1000 -86.6000 EX 30 993 -4 51 35
1961247N13283 1961 84 NA NA CARLA 1961-09-14 09:00:00 ET 44.0930 -84.6370 main 0 0 P_____________ AL031961 44.0930 -84.6370 EX 27 993 -4 45 37
1961247N13283 1961 84 NA NA CARLA 1961-09-14 12:00:00 ET 45.7000 -82.8000 25 993 hurdat_atl main 0 0 O_____________ hurdat_atl AL031961 45.7000 -82.8000 EX 25 993 -4 35 43
1961247N13283 1961 84 NA NA CARLA 1961-09-14 15:00:00 ET 46.6013 -81.2407 main 0 0 P_____________ AL031961 46.6013 -81.2407 EX 25 992 -4 25 54
1961247N13283 1961 84 NA NA CARLA 1961-09-14 18:00:00 ET 47.2000 -79.8000 25 992 hurdat_atl main 0 0 O_____________ hurdat_atl AL031961 47.2000 -79.8000 EX 25 992 -4 24 58
1961247N13283 1961 84 NA NA CARLA 1961-09-14 21:00:00 ET 47.8705 -78.2309 main 0 0 P_____________ AL031961 47.8705 -78.2309 EX 25 991 -4 27 56
1961247N13283 1961 84 NA NA CARLA 1961-09-15 00:00:00 ET 48.7000 -76.5000 25 991 hurdat_atl main 0 0 O_____________ hurdat_atl AL031961 48.7000 -76.5000 EX 25 991 -4 32 51
1961247N13283 1961 84 NA NA CARLA 1961-09-15 03:00:00 ET 49.8759 -74.4203 main 0 0 P_____________ AL031961 49.8759 -74.4203 EX 25 990 -4 37 48
1961247N13283 1961 84 NA NA CARLA 1961-09-15 06:00:00 ET 51.2000 -72.2000 25 990 hurdat_atl main 0 0 O_____________ hurdat_atl AL031961 51.2000 -72.2000 EX 25 990 -4 38 48
1961247N13283 1961 84 NA NA CARLA 1961-09-15 09:00:00 ET 52.4068 -69.9462 main 0 0 P_____________ AL031961 52.4068 -69.9462 EX 25 988 -4 36 46
1961247N13283 1961 84 NA NA CARLA 1961-09-15 12:00:00 ET 53.7000 -68.0000 25 986 hurdat_atl main 0 0 O_____________ hurdat_atl AL031961 53.7000 -68.0000 EX 25 986 -4 34 35
1961247N13283 1961 84 NA NA CARLA 1961-09-15 15:00:00 ET 55.2304 -66.5848 main 0 0 P_____________ AL031961 55.2304 -66.5848 EX 27 984 -4 34 23
1961247N13283 1961 84 NA NA CARLA 1961-09-15 18:00:00 ET 56.8000 -65.7000 30 983 hurdat_atl main 0 0 O_____________ hurdat_atl AL031961 56.8000 -65.7000 EX 30 983 -4 31 14
1961247N13283 1961 84 NA NA CARLA 1961-09-15 21:00:00 ET 58.2677 -65.2005 main 0 0 P_____________ AL031961 58.2677 -65.2005 EX 30 981 -4 27 8
1961247N13283 1961 84 NA NA CARLA 1961-09-16 00:00:00 ET 59.5000 -65.0000 30 980 hurdat_atl main 0 0 O_____________ hurdat_atl AL031961 59.5000 -65.0000 EX 30 980 -4 21 5
1961247N13283 1961 84 NA NA CARLA 1961-09-16 03:00:00 ET 60.3765 -64.8023 main 11 11 P_____________ AL031961 60.3765 -64.8023 EX 32 978 -4 15 9
1961247N13283 1961 84 NA NA CARLA 1961-09-16 06:00:00 ET 61.0000 -64.5000 35 976 hurdat_atl main 77 77 O_____________ hurdat_atl AL031961 61.0000 -64.5000 EX 35 976 -4 12 23
1961247N13283 1961 84 NA NA CARLA 1961-09-16 09:00:00 ET 61.5156 -63.8231 main 118 116 P_____________ AL031961 61.5156 -63.8231 EX 35 975 -4 12 36
1961247N13283 1961 84 NA NA CARLA 1961-09-16 12:00:00 ET 62.0000 -63.0000 35 974 hurdat_atl main 117 116 O_____________ hurdat_atl AL031961 62.0000 -63.0000 EX 35 974 -4 13 34
1961247N13283 1961 84 NA NA CARLA 1961-09-16 15:00:00 ET 62.5972 -62.2461 main 125 123 P_____________ AL031961 62.5972 -62.2461 EX 37 973 -4 15 28
1961247N13283 1961 84 NA NA CARLA 1961-09-16 18:00:00 ET 63.3000 -61.5000 40 972 hurdat_atl main 148 148 O_____________ hurdat_atl AL031961 63.3000 -61.5000 EX 40 972 -4 17 25
1961247N13283 1961 84 NA NA CARLA 1961-09-16 21:00:00 ET 64.1432 -60.6258 main 163 137 P_____________ AL031961 64.1432 -60.6258 EX 40 973 -4 18 21
1961247N13283 1961 84 NA NA CARLA 1961-09-17 00:00:00 ET 65.0000 -60.0000 40 974 hurdat_atl main 137 87 O_____________ hurdat_atl AL031961 65.0000 -60.0000 EX 40 974 -4 16 8
1961247N13283 1961 84 NA NA CARLA 1961-09-17 03:00:00 ET 65.7819 -60.0809 main 83 49 P_____________ AL031961 65.7819 -60.0809 EX 37 975 -4 14 355
1961247N13283 1961 84 NA NA CARLA 1961-09-17 06:00:00 ET 66.4000 -60.3000 35 976 hurdat_atl main 49 45 O_____________ hurdat_atl AL031961 66.4000 -60.3000 EX 35 976 -4 10 0
1961247N13283 1961 84 NA NA CARLA 1961-09-17 09:00:00 ET 66.7672 -60.0358 main 57 57 P_____________ AL031961 66.7672 -60.0358 EX 32 978 -4 7 28
1961247N13283 1961 84 NA NA CARLA 1961-09-17 12:00:00 ET 67.0000 -59.5000 30 980 hurdat_atl main 84 84 O_____________ hurdat_atl AL031961 67.0000 -59.5000 EX 30 980 -4 6 40
1961247N13283 1961 84 NA NA CARLA 1961-09-17 15:00:00 ET 67.2537 -58.9834 main 119 119 P_____________ AL031961 67.2537 -58.9834 EX 27 982 -4 8 49
1961247N13283 1961 84 NA NA CARLA 1961-09-17 18:00:00 ET 67.5000 -58.0000 25 984 hurdat_atl main 166 109 O_____________ hurdat_atl AL031961 67.5000 -58.0000 EX 25 984 -4 12 64
1961247N13283 1961 84 NA NA CARLA 1961-09-17 21:00:00 ET 67.7568 -56.2461 main 102 34 P_____________ AL031961 67.7568 -56.2461 EX 22 986 -4 16 72
1961247N13283 1961 84 NA NA CARLA 1961-09-18 00:00:00 ET 68.0000 -54.0000 20 988 hurdat_atl main 31 O_____________ hurdat_atl AL031961 68.0000 -54.0000 EX 20 988 -4 17 74

IBTrACS Databaseについて

本データベースは、米国NOAAが公開する1842年以降の世界の熱帯低気圧のベストトラックデータアーカイブInternational Best Track Archive for Climate Stewardship (IBTrACS)を、ウェブで閲覧しやすい形式に変換したものです。

最終更新日:2021-12-03